Terminal Aerodrome Forecast
Issued by NWS Charleston, WV

Current Version | Previous Version | Text Only | Print | Product List | Glossary Off
Versions: 1 2 3 4 5 6 7 8 9 10 11 12 13 14 15 16 17 18 19 20 21 22 23 24 25

000
FTUS41 KRLX 231100
TAFBKW
TAF
KBKW 231133Z 2312/2412 20005KT P6SM SCT040
     FM231400 25009KT P6SM SCT040
     FM231800 29009KT P6SM VCTS SCT030CB
     FM232300 30009KT 5SM TSRA BR BKN030CB
     FM240300 VRB03KT 3SM SHRA BR BKN020
     FM240800 29004KT 2SM -SHRA BR OVC012=

USA.gov is the U.S. government's official web portal to all federal, state and local government web resources and services.